Ava, Missouri
Current Conditions -  °F | °C
As of 4:35 AM on Monday 20 Oct 2014 (Local Time) from KBBG Reporting Station
Light Rain Light Rain  
Wind Chill: 12°   Ceiling: 6000
Heat Index: 12°   Visibility: 10mi
Dew Point:   Wind: 0mph
Humidity: 82%   Direction: NA
Pressure: 30.05"   Gusts: NA
Location:  36.95°N, 92.66°W
Report Text: KBBG 200935Z AUTO 00000KT 10SM -RA FEW041 SCT050 BKN060 12/09 A3005 RMK AO2 P0001
Loading
Personal Weather Stations






























Interactive Weather Map
Tropical Storm Tracking
New forecast layout! Learn more

10-Day Weather Forecast

Advertisements
Track Severe Weather on mobile